Time;durP1;ratioP1;P1;durP2;ratioP2;P2;SDS_P1;SDS_P2;PMS_P1;PMS_P2;Temp;Humidity;BMP_temperature;BMP_pressure;BME280_temperature;BME280_humidity;BME280_pressure;Samples;Min_cycle;Max_cycle;Signal;HPM_P1;HPM_P2
2022/07/03 00:01:26;;;;;;;0.20;0.20;;;18.00;99.90;;;;;;5038774;28;20190;-84
2022/07/03 00:03:52;;;;;;;0.47;0.47;;;18.00;99.90;;;;;;5041142;28;20676;-83
2022/07/03 00:06:17;;;;;;;0.30;0.30;;;18.00;99.90;;;;;;5042718;28;20277;-83
2022/07/03 00:08:43;;;;;;;0.37;0.37;;;17.90;99.90;;;;;;5041107;28;20197;-85
2022/07/03 00:11:09;;;;;;;0.30;0.30;;;17.90;99.90;;;;;;5041946;28;20205;-83
2022/07/03 00:13:35;;;;;;;0.10;0.10;;;18.00;99.90;;;;;;5039361;28;20274;-82
2022/07/03 00:16:01;;;;;;;0.30;0.30;;;17.90;99.90;;;;;;5042848;28;20248;-83
2022/07/03 00:18:26;;;;;;;0.47;0.47;;;17.80;99.90;;;;;;5039289;28;20185;-83
2022/07/03 00:21:00;;;;;;;0.23;0.23;;;17.80;99.90;;;;;;5038995;28;20204;-83
2022/07/03 00:23:29;;;;;;;0.20;0.20;;;18.00;99.90;;;;;;5042990;28;20191;-83
2022/07/03 00:25:57;;;;;;;0.10;0.10;;;18.20;99.90;;;;;;5039861;28;20256;-83
2022/07/03 00:28:24;;;;;;;0.27;0.27;;;18.40;99.90;;;;;;5041764;28;20192;-84
2022/07/03 00:30:51;;;;;;;0.40;0.20;;;18.40;99.90;;;;;;5046601;28;20209;-84
2022/07/03 00:33:18;;;;;;;1.27;0.67;;;18.30;99.90;;;;;;5040191;28;20205;-82
2022/07/03 00:35:44;;;;;;;0.20;0.20;;;18.10;99.90;;;;;;5039369;28;20184;-83
2022/07/03 00:38:12;;;;;;;0.73;0.60;;;18.10;99.90;;;;;;5041491;28;20646;-84
2022/07/03 00:40:38;;;;;;;0.40;0.40;;;18.00;99.90;;;;;;5040029;28;20205;-83
2022/07/03 00:43:04;;;;;;;0.23;0.23;;;18.00;99.90;;;;;;5039648;28;20185;-84
2022/07/03 00:45:34;;;;;;;0.13;0.13;;;18.10;99.90;;;;;;5040549;28;20547;-83
2022/07/03 00:48:00;;;;;;;0.30;0.30;;;18.30;99.90;;;;;;5040564;28;20190;-84
2022/07/03 00:50:33;;;;;;;0.20;0.20;;;18.40;99.90;;;;;;5039862;28;20619;-83
2022/07/03 00:53:00;;;;;;;0.30;0.30;;;18.40;99.90;;;;;;5053276;28;20297;-82
2022/07/03 00:55:27;;;;;;;2.00;1.00;;;18.50;99.90;;;;;;5037508;28;20192;-83
2022/07/03 00:57:55;;;;;;;0.30;0.30;;;18.60;99.90;;;;;;5041015;28;20655;-82
2022/07/03 01:00:22;;;;;;;0.73;0.50;;;18.60;99.90;;;;;;5039406;28;20217;-83
2022/07/03 01:02:57;;;;;;;2.37;0.40;;;18.60;99.90;;;;;;5041338;28;20272;-83
2022/07/03 01:05:29;;;;;;;0.20;0.20;;;18.70;99.90;;;;;;5040354;28;20645;-82
2022/07/03 01:08:33;;;;;;;0.20;0.20;;;18.70;99.90;;;;;;5044548;28;20197;-84
2022/07/03 01:11:14;;;;;;;0.30;0.30;;;18.80;99.90;;;;;;5047626;28;20216;-83
2022/07/03 01:14:00;;;;;;;0.50;0.27;;;18.80;99.90;;;;;;5042336;28;20205;-83
2022/07/03 01:16:59;;;;;;;0.33;0.30;;;18.80;99.90;;;;;;5041857;28;20191;-82
2022/07/03 01:19:41;;;;;;;0.40;0.40;;;18.80;99.90;;;;;;5040564;28;20213;-83
2022/07/03 01:22:29;;;;;;;0.17;0.17;;;18.80;99.90;;;;;;5041641;28;20185;-83
2022/07/03 01:25:29;;;;;;;0.40;0.40;;;18.80;99.90;;;;;;5041248;28;20190;-83
2022/07/03 01:28:06;;;;;;;0.20;0.20;;;18.80;99.90;;;;;;5042762;28;20528;-83
2022/07/03 01:30:36;;;;;;;0.17;0.17;;;18.80;99.90;;;;;;5046224;28;20325;-83
2022/07/03 01:33:08;;;;;;;0.17;0.17;;;18.70;99.90;;;;;;5041416;28;20222;-83
2022/07/03 01:35:47;;;;;;;0.40;0.27;;;18.70;99.90;;;;;;5041669;28;20190;-84
2022/07/03 01:38:13;;;;;;;0.27;0.27;;;18.60;99.90;;;;;;5041835;28;20659;-83
2022/07/03 01:40:41;;;;;;;0.23;0.23;;;18.30;99.90;;;;;;5040752;28;20294;-83
2022/07/03 01:43:09;;;;;;;0.10;0.10;;;18.10;99.90;;;;;;5039784;28;20186;-82
2022/07/03 01:45:45;;;;;;;0.23;0.23;;;18.00;99.90;;;;;;5061448;28;20201;-82
2022/07/03 01:48:12;;;;;;;0.50;0.50;;;18.10;99.90;;;;;;5041280;28;20185;-82
2022/07/03 01:50:38;;;;;;;0.30;0.30;;;18.10;99.90;;;;;;5043079;28;20646;-82
2022/07/03 01:53:07;;;;;;;0.37;0.37;;;18.20;99.90;;;;;;5040694;28;20663;-83
2022/07/03 01:55:37;;;;;;;0.57;0.40;;;18.20;99.90;;;;;;5039772;28;20195;-82
2022/07/03 01:58:03;;;;;;;0.70;0.30;;;18.20;99.90;;;;;;5038995;28;20185;-83
2022/07/03 02:00:29;;;;;;;0.30;0.30;;;18.30;99.90;;;;;;5040611;28;20204;-82
2022/07/03 02:03:04;;;;;;;0.40;0.33;;;18.30;99.90;;;;;;5042814;28;20186;-82
2022/07/03 02:05:50;;;;;;;0.40;0.23;;;18.30;99.90;;;;;;5041379;28;20188;-82
2022/07/03 02:08:18;;;;;;;0.20;0.20;;;18.40;99.90;;;;;;5042318;28;20182;-83
2022/07/03 02:11:12;;;;;;;4.50;0.60;;;18.40;99.90;;;;;;5037897;28;20214;-83
2022/07/03 02:13:55;;;;;;;0.33;0.20;;;18.40;99.90;;;;;;5039099;28;20226;-83
2022/07/03 02:16:23;;;;;;;0.20;0.20;;;18.40;99.90;;;;;;5038903;28;20189;-83
2022/07/03 02:19:02;;;;;;;0.40;0.40;;;18.10;99.90;;;;;;5039150;28;20562;-82
2022/07/03 02:21:28;;;;;;;0.20;0.20;;;18.00;99.90;;;;;;5041441;28;20209;-83
2022/07/03 02:24:06;;;;;;;0.47;0.30;;;18.00;99.90;;;;;;5039583;28;20294;-83
2022/07/03 02:26:38;;;;;;;0.40;0.40;;;18.10;99.90;;;;;;5061429;28;20190;-82
2022/07/03 02:29:06;;;;;;;0.10;0.10;;;18.00;99.90;;;;;;5040436;28;20348;-82
2022/07/03 02:31:43;;;;;;;0.20;0.20;;;17.90;99.90;;;;;;5040633;28;20185;-82
2022/07/03 02:34:16;;;;;;;0.20;0.20;;;17.90;99.90;;;;;;5038867;28;20217;-82
2022/07/03 02:36:47;;;;;;;0.20;0.20;;;18.00;99.90;;;;;;5038903;28;20182;-82
2022/07/03 02:39:37;;;;;;;0.20;0.20;;;17.90;99.90;;;;;;5045418;28;20206;-82
2022/07/03 02:42:08;;;;;;;0.10;0.10;;;17.90;99.90;;;;;;5036752;28;20194;-83
2022/07/03 02:44:44;;;;;;;0.40;0.40;;;17.80;99.90;;;;;;5039191;28;20228;-82
2022/07/03 02:47:42;;;;;;;0.73;0.20;;;17.80;99.90;;;;;;5040412;28;20232;-82
2022/07/03 02:50:15;;;;;;;0.20;0.20;;;17.70;99.90;;;;;;5039427;28;20210;-82
2022/07/03 02:52:46;;;;;;;0.30;0.30;;;17.80;99.90;;;;;;5038959;28;20258;-82
2022/07/03 02:55:42;;;;;;;0.47;0.40;;;17.80;99.90;;;;;;5061895;28;20671;-82
2022/07/03 02:58:26;;;;;;;0.40;0.30;;;17.90;99.90;;;;;;5039141;28;20656;-82
2022/07/03 03:01:06;;;;;;;0.40;0.40;;;17.90;99.90;;;;;;5061840;28;20233;-83
2022/07/03 03:03:32;;;;;;;0.40;0.40;;;17.90;99.90;;;;;;5039630;28;20187;-83
2022/07/03 03:06:03;;;;;;;0.60;0.40;;;17.90;99.90;;;;;;5037613;28;20191;-83
2022/07/03 03:08:40;;;;;;;0.20;0.20;;;18.00;99.90;;;;;;5033431;28;20268;-83
2022/07/03 03:11:08;;;;;;;0.23;0.23;;;18.00;99.90;;;;;;5043176;28;20730;-83
2022/07/03 03:13:35;;;;;;;0.20;0.20;;;17.90;99.90;;;;;;5039914;28;20212;-82
2022/07/03 03:16:11;;;;;;;0.10;0.10;;;17.90;99.90;;;;;;5057138;28;20183;-82
2022/07/03 03:18:39;;;;;;;0.47;0.47;;;17.90;99.90;;;;;;5035223;28;20178;-82
2022/07/03 03:21:16;;;;;;;0.80;0.80;;;17.90;99.90;;;;;;5037012;28;20185;-82
2022/07/03 03:23:48;;;;;;;0.30;0.30;;;17.90;99.90;;;;;;5037764;28;20177;-82
2022/07/03 03:26:21;;;;;;;1.63;1.47;;;17.90;99.90;;;;;;5037405;28;20174;-83
2022/07/03 03:28:47;;;;;;;0.40;0.40;;;17.90;99.90;;;;;;5034292;28;20189;-82
2022/07/03 03:31:13;;;;;;;0.40;0.30;;;17.80;99.90;;;;;;5034462;28;20183;-82
2022/07/03 03:33:43;;;;;;;0.47;0.33;;;17.80;99.90;;;;;;5037027;28;20209;-82
2022/07/03 03:36:11;;;;;;;0.20;0.20;;;17.70;99.90;;;;;;5035954;28;20627;-82
2022/07/03 03:38:37;;;;;;;0.37;0.37;;;17.70;99.90;;;;;;5034170;28;20182;-81
2022/07/03 03:41:03;;;;;;;0.30;0.30;;;17.60;99.90;;;;;;5037835;28;20277;-82
2022/07/03 03:43:30;;;;;;;0.70;0.40;;;18.40;99.90;;;;;;5031054;28;20189;-82
2022/07/03 03:45:56;;;;;;;1.60;0.33;;;19.50;99.90;;;;;;5034713;28;20190;-82
2022/07/03 03:48:22;;;;;;;0.10;0.10;;;20.50;99.90;;;;;;5043080;28;20187;-83
2022/07/03 03:50:48;;;;;;;0.20;0.20;;;21.30;99.90;;;;;;5035378;28;20283;-83
2022/07/03 03:53:15;;;;;;;0.30;0.30;;;22.00;99.90;;;;;;5036202;28;20206;-82
2022/07/03 03:56:16;;;;;;;0.20;0.20;;;22.00;99.90;;;;;;5037981;28;20197;-83
2022/07/03 03:58:43;;;;;;;0.43;0.43;;;22.60;99.90;;;;;;5036261;28;20204;-82
2022/07/03 04:01:10;;;;;;;0.17;0.17;;;23.20;99.90;;;;;;5036545;28;20281;-83
2022/07/03 04:03:37;;;;;;;0.40;0.40;;;23.70;99.90;;;;;;5037029;28;20196;-83
2022/07/03 04:06:03;;;;;;;0.37;0.37;;;23.40;99.90;;;;;;5033619;28;20201;-82
2022/07/03 04:08:30;;;;;;;0.60;0.50;;;23.30;99.90;;;;;;5037709;28;20190;-82
2022/07/03 04:10:56;;;;;;;0.30;0.30;;;23.30;99.90;;;;;;5037893;28;20800;-83
2022/07/03 04:13:22;;;;;;;0.23;0.23;;;23.20;99.90;;;;;;5035627;28;20217;-82
2022/07/03 04:15:49;;;;;;;0.70;0.70;;;23.20;99.90;;;;;;5034355;28;20964;-82
2022/07/03 04:18:14;;;;;;;0.97;0.60;;;23.40;99.90;;;;;;5035507;28;20245;-83
2022/07/03 04:20:40;;;;;;;0.30;0.30;;;23.90;99.90;;;;;;5035453;28;20296;-82
2022/07/03 04:23:06;;;;;;;0.30;0.30;;;24.10;99.90;;;;;;5036100;28;20799;-82
2022/07/03 04:25:31;;;;;;;0.30;0.30;;;24.30;99.90;;;;;;5035617;28;20182;-82
2022/07/03 04:27:57;;;;;;;0.40;0.20;;;23.90;99.90;;;;;;5037719;28;20242;-82
2022/07/03 04:30:23;;;;;;;0.23;0.23;;;23.00;99.90;;;;;;5035864;28;20220;-82
2022/07/03 04:32:49;;;;;;;0.30;0.30;;;21.90;99.90;;;;;;5035875;28;20205;-83
2022/07/03 04:35:15;;;;;;;0.30;0.30;;;21.40;99.90;;;;;;5039144;28;20598;-83
2022/07/03 04:37:41;;;;;;;0.50;0.50;;;20.90;99.90;;;;;;5041938;28;20207;-83
2022/07/03 04:40:08;;;;;;;0.33;0.33;;;20.40;99.90;;;;;;5038410;28;20554;-82
2022/07/03 04:42:33;;;;;;;0.20;0.20;;;20.30;99.90;;;;;;5039544;28;20190;-83
2022/07/03 04:44:59;;;;;;;0.50;0.50;;;20.10;99.90;;;;;;5036925;28;20219;-83
2022/07/03 04:47:24;;;;;;;0.30;0.30;;;20.30;99.90;;;;;;5045112;28;20193;-82
2022/07/03 04:49:50;;;;;;;0.10;0.10;;;20.50;99.90;;;;;;5037499;28;20938;-87
2022/07/03 04:52:17;;;;;;;0.40;0.40;;;20.60;99.90;;;;;;5037409;28;20196;-84
2022/07/03 04:54:43;;;;;;;0.20;0.20;;;20.40;99.90;;;;;;5041620;28;20274;-82
2022/07/03 04:57:08;;;;;;;0.30;0.30;;;20.50;99.90;;;;;;5038494;28;20671;-82
2022/07/03 04:59:34;;;;;;;0.70;0.57;;;20.70;99.90;;;;;;5039500;28;20208;-83
2022/07/03 05:01:59;;;;;;;0.40;0.40;;;20.70;99.90;;;;;;5036252;28;20280;-81
2022/07/03 05:04:25;;;;;;;1.37;0.97;;;20.50;99.90;;;;;;5039866;28;20198;-82
2022/07/03 05:06:51;;;;;;;0.80;0.50;;;20.40;99.90;;;;;;5041293;28;20213;-82
2022/07/03 05:09:18;;;;;;;2.10;0.40;;;20.20;99.90;;;;;;5053755;28;20655;-82
2022/07/03 05:11:44;;;;;;;0.53;0.53;;;20.10;99.90;;;;;;5037985;28;20670;-81
2022/07/03 05:14:09;;;;;;;0.73;0.73;;;20.00;99.90;;;;;;5039831;28;20209;-82
2022/07/03 05:16:35;;;;;;;4.00;0.67;;;19.90;99.90;;;;;;5039489;28;20231;-82
2022/07/03 05:19:01;;;;;;;0.50;0.50;;;19.80;99.90;;;;;;5038271;28;20209;-82
2022/07/03 05:21:27;;;;;;;1.17;1.07;;;19.80;99.90;;;;;;5037847;28;20277;-82
2022/07/03 05:23:53;;;;;;;0.70;0.70;;;19.70;99.90;;;;;;5039292;28;20220;-81
2022/07/03 05:26:19;;;;;;;0.70;0.67;;;19.60;99.90;;;;;;5037596;28;20222;-82
2022/07/03 05:28:44;;;;;;;0.43;0.43;;;19.50;99.90;;;;;;5039234;28;20196;-82
2022/07/03 05:31:10;;;;;;;0.20;0.20;;;19.50;99.90;;;;;;5038933;28;20189;-82
2022/07/03 05:33:35;;;;;;;0.40;0.40;;;19.60;99.90;;;;;;5040082;28;20220;-82
2022/07/03 05:36:01;;;;;;;0.23;0.23;;;19.70;99.90;;;;;;5041570;28;20232;-83
2022/07/03 05:41:11;;;;;;;0.27;0.27;;;19.80;99.90;;;;;;5038017;28;20247;-83
2022/07/03 05:43:37;;;;;;;0.30;0.30;;;19.90;99.90;;;;;;5038662;28;20663;-83
2022/07/03 05:46:03;;;;;;;0.33;0.33;;;19.90;99.90;;;;;;5036712;28;20190;-83
2022/07/03 05:48:29;;;;;;;0.20;0.20;;;20.00;99.90;;;;;;5036946;28;20193;-83
2022/07/03 05:50:55;;;;;;;0.23;0.23;;;20.20;99.90;;;;;;5041596;28;20225;-83
2022/07/03 05:53:21;;;;;;;0.30;0.30;;;20.20;99.90;;;;;;5036982;28;20211;-83
2022/07/03 05:55:46;;;;;;;0.20;0.20;;;20.40;99.90;;;;;;5035355;28;20197;-83
2022/07/03 05:58:12;;;;;;;0.40;0.40;;;20.50;99.90;;;;;;5037123;28;20191;-82
2022/07/03 06:00:38;;;;;;;0.10;0.10;;;20.60;99.90;;;;;;5033621;28;20694;-83
2022/07/03 06:03:03;;;;;;;0.40;0.40;;;20.80;99.90;;;;;;5035278;28;20540;-83
2022/07/03 06:05:29;;;;;;;0.30;0.30;;;20.90;99.90;;;;;;5039206;28;20193;-83
2022/07/03 06:07:55;;;;;;;0.43;0.30;;;21.00;99.90;;;;;;5035585;28;20305;-83
2022/07/03 06:10:21;;;;;;;0.40;0.40;;;21.00;99.90;;;;;;5037285;28;20218;-84
2022/07/03 06:12:47;;;;;;;1.70;0.57;;;21.10;99.90;;;;;;5036295;28;20781;-82
2022/07/03 06:15:12;;;;;;;0.40;0.27;;;21.20;99.90;;;;;;5034432;28;20190;-83
2022/07/03 06:17:38;;;;;;;0.30;0.30;;;21.30;99.90;;;;;;5037384;28;20202;-83
2022/07/03 06:20:06;;;;;;;0.23;0.23;;;21.50;99.90;;;;;;5037236;28;20209;-83
2022/07/03 06:22:31;;;;;;;0.30;0.30;;;21.50;99.90;;;;;;5057731;28;20197;-83
2022/07/03 06:24:57;;;;;;;0.80;0.77;;;21.60;99.90;;;;;;5034052;28;20190;-83
2022/07/03 06:27:23;;;;;;;0.43;0.43;;;21.80;99.90;;;;;;5036995;28;20186;-82
2022/07/03 06:29:52;;;;;;;0.53;0.47;;;22.00;99.90;;;;;;5035709;28;20210;-84
2022/07/03 06:32:18;;;;;;;0.37;0.37;;;22.10;99.90;;;;;;5034472;28;20193;-84
2022/07/03 06:34:43;;;;;;;0.77;0.77;;;22.20;99.90;;;;;;5035085;28;20190;-84
2022/07/03 06:37:09;;;;;;;0.20;0.20;;;22.30;99.90;;;;;;5034636;28;20244;-84
2022/07/03 06:39:35;;;;;;;0.50;0.50;;;22.40;99.90;;;;;;5036874;28;20213;-84
2022/07/03 06:42:01;;;;;;;0.60;0.60;;;22.60;99.90;;;;;;5037286;28;20194;-84
2022/07/03 06:44:26;;;;;;;0.50;0.50;;;22.60;99.90;;;;;;5036871;28;20209;-84
2022/07/03 06:46:53;;;;;;;0.30;0.30;;;22.60;99.90;;;;;;5039447;28;20188;-84
2022/07/03 06:49:19;;;;;;;0.30;0.30;;;22.60;99.90;;;;;;5037934;28;20210;-84
2022/07/03 06:51:45;;;;;;;0.20;0.20;;;22.60;99.90;;;;;;5036105;28;20264;-84
2022/07/03 06:54:10;;;;;;;0.47;0.47;;;22.60;99.90;;;;;;5035780;28;20205;-84
2022/07/03 06:56:36;;;;;;;0.80;0.80;;;22.80;99.90;;;;;;5032058;28;20182;-84
2022/07/03 06:59:02;;;;;;;0.50;0.50;;;22.60;99.90;;;;;;5035562;28;20629;-83
2022/07/03 07:01:27;;;;;;;0.50;0.50;;;22.70;99.90;;;;;;5047305;28;20982;-84
2022/07/03 07:03:53;;;;;;;0.37;0.30;;;22.90;99.90;;;;;;5035792;28;20255;-84
2022/07/03 07:06:18;;;;;;;0.40;0.40;;;22.80;99.90;;;;;;5034876;28;20187;-84
2022/07/03 07:08:44;;;;;;;0.43;0.43;;;22.90;99.90;;;;;;5036035;28;20225;-84
2022/07/03 07:11:09;;;;;;;0.80;0.80;;;22.80;99.90;;;;;;5032742;28;20297;-84
2022/07/03 07:13:35;;;;;;;0.63;0.63;;;22.80;99.90;;;;;;5033907;28;20213;-84
2022/07/03 07:16:01;;;;;;;0.70;0.70;;;22.80;99.90;;;;;;5035643;28;20430;-83
2022/07/03 07:18:26;;;;;;;0.87;0.67;;;23.00;99.90;;;;;;5033074;28;20185;-84
2022/07/03 07:20:52;;;;;;;0.80;0.80;;;23.10;99.90;;;;;;5034442;28;20205;-84
2022/07/03 07:23:18;;;;;;;0.50;0.50;;;23.30;99.90;;;;;;5037459;28;20644;-83
2022/07/03 07:25:43;;;;;;;0.53;0.53;;;23.50;99.90;;;;;;5032024;28;20186;-81
2022/07/03 07:28:09;;;;;;;0.50;0.50;;;23.70;99.90;;;;;;5036322;28;20711;-84
2022/07/03 07:30:35;;;;;;;0.40;0.40;;;23.80;99.90;;;;;;5036999;28;20217;-84
2022/07/03 07:33:00;;;;;;;0.33;0.23;;;23.90;99.90;;;;;;5034263;28;20217;-84
2022/07/03 07:35:26;;;;;;;0.70;0.60;;;24.10;99.90;;;;;;5031239;28;20191;-83
2022/07/03 07:37:51;;;;;;;0.40;0.40;;;24.10;99.90;;;;;;5034386;28;20205;-83
2022/07/03 07:40:17;;;;;;;0.50;0.50;;;24.20;99.90;;;;;;5032778;28;20212;-84
2022/07/03 07:42:42;;;;;;;0.77;0.70;;;24.20;99.90;;;;;;5032641;28;20192;-84
2022/07/03 07:45:09;;;;;;;1.03;0.93;;;24.30;99.90;;;;;;5032732;28;20198;-83
2022/07/03 07:47:35;;;;;;;0.80;0.70;;;24.30;99.90;;;;;;5033500;28;20189;-84
2022/07/03 07:50:01;;;;;;;0.30;0.30;;;24.40;99.90;;;;;;5054348;28;21238;-84
2022/07/03 07:52:26;;;;;;;0.67;0.67;;;24.50;99.90;;;;;;5034226;28;20562;-83
2022/07/03 07:54:52;;;;;;;0.60;0.60;;;24.60;99.90;;;;;;5031626;28;20187;-82
2022/07/03 07:57:17;;;;;;;0.70;0.70;;;24.60;99.90;;;;;;5031079;28;20189;-82
2022/07/03 07:59:43;;;;;;;0.60;0.60;;;24.60;99.90;;;;;;5032879;28;21271;-83
2022/07/03 08:07:36;;;;;;;0.60;0.60;;;24.80;99.90;;;;;;5035328;28;20200;-85
2022/07/03 08:10:03;;;;;;;0.20;0.20;;;25.00;99.90;;;;;;5033470;28;20726;-85
2022/07/03 08:12:28;;;;;;;0.33;0.33;;;25.10;99.90;;;;;;5033418;28;20190;-84
2022/07/03 08:14:54;;;;;;;0.33;0.33;;;25.30;99.90;;;;;;5035485;28;20186;-84
2022/07/03 08:17:20;;;;;;;0.53;0.50;;;25.40;99.90;;;;;;5034310;28;20193;-84
2022/07/03 08:19:45;;;;;;;0.37;0.37;;;25.60;99.90;;;;;;5032296;28;20327;-84
2022/07/03 08:22:11;;;;;;;0.73;0.73;;;25.70;99.90;;;;;;5031413;28;20193;-85
2022/07/03 08:24:37;;;;;;;0.47;0.47;;;25.70;99.90;;;;;;5033875;28;20679;-84
2022/07/03 08:27:04;;;;;;;0.73;0.53;;;25.90;99.90;;;;;;5036950;28;20193;-84
2022/07/03 08:29:29;;;;;;;0.40;0.40;;;26.00;99.90;;;;;;5036745;28;20937;-85
2022/07/03 08:31:56;;;;;;;0.60;0.40;;;26.20;99.90;;;;;;5038295;28;20196;-85
2022/07/03 08:34:22;;;;;;;0.40;0.40;;;26.20;99.90;;;;;;5036255;28;20210;-85
2022/07/03 08:36:47;;;;;;;1.40;0.60;;;26.30;99.90;;;;;;5035193;28;20236;-84
2022/07/03 08:39:13;;;;;;;0.30;0.30;;;26.30;99.90;;;;;;5036499;28;20212;-85
2022/07/03 08:41:40;;;;;;;0.40;0.40;;;26.40;99.90;;;;;;5036091;28;20186;-84
2022/07/03 08:44:08;;;;;;;0.40;0.40;;;26.40;99.90;;;;;;5031536;28;20198;-85
2022/07/03 08:46:35;;;;;;;0.20;0.20;;;26.60;99.90;;;;;;5041222;28;20237;-85
2022/07/03 08:49:02;;;;;;;0.40;0.40;;;26.70;99.90;;;;;;5035268;28;20672;-85
2022/07/03 08:51:28;;;;;;;0.37;0.37;;;26.90;99.90;;;;;;5036301;28;20267;-84
2022/07/03 08:53:54;;;;;;;0.43;0.43;;;27.00;99.90;;;;;;5033830;28;20764;-84
2022/07/03 08:56:22;;;;;;;0.30;0.30;;;27.10;99.90;;;;;;5032147;28;20182;-84
2022/07/03 08:58:47;;;;;;;0.30;0.30;;;27.20;99.90;;;;;;5036356;28;20462;-83
2022/07/03 09:01:18;;;;;;;0.60;0.53;;;27.30;99.90;;;;;;5032216;28;20302;-83
2022/07/03 09:03:44;;;;;;;0.60;0.60;;;27.50;99.90;;;;;;5036360;28;20594;-83
2022/07/03 09:06:13;;;;;;;0.23;0.23;;;27.60;99.90;;;;;;5034276;28;20213;-84
2022/07/03 09:08:40;;;;;;;0.70;0.70;;;27.70;99.90;;;;;;5033143;28;20647;-85
2022/07/03 09:11:06;;;;;;;0.60;0.60;;;27.90;99.90;;;;;;5036068;28;20275;-83
2022/07/03 09:13:32;;;;;;;0.30;0.30;;;27.90;99.90;;;;;;5034124;28;20214;-83
2022/07/03 09:15:57;;;;;;;0.60;0.60;;;28.00;99.90;;;;;;5035162;28;20568;-84
2022/07/03 09:18:38;;;;;;;0.40;0.40;;;28.30;99.90;;;;;;5035136;28;20186;-85
2022/07/03 09:21:04;;;;;;;0.30;0.30;;;28.20;99.90;;;;;;5042841;28;20216;-83
2022/07/03 09:23:37;;;;;;;0.68;0.40;;;28.30;99.90;;;;;;5039819;28;20384;-83
2022/07/03 09:26:04;;;;;;;0.43;0.43;;;28.50;99.90;;;;;;5037389;28;20250;-83
2022/07/03 09:28:52;;;;;;;0.45;0.45;;;28.40;99.90;;;;;;5040451;28;20223;-83
2022/07/03 09:31:20;;;;;;;0.52;0.52;;;28.40;99.90;;;;;;5040629;28;20181;-83
2022/07/03 09:33:55;;;;;;;0.50;0.50;;;28.40;99.90;;;;;;5038820;28;20324;-83
2022/07/03 09:36:38;;;;;;;0.38;0.38;;;28.50;99.90;;;;;;5039901;28;20204;-84
2022/07/03 09:39:23;;;;;;;0.43;0.43;;;28.40;99.90;;;;;;5059471;28;20707;-84
2022/07/03 09:41:54;;;;;;;0.45;0.45;;;28.60;99.90;;;;;;5036108;28;20182;-83
2022/07/03 09:44:30;;;;;;;0.30;0.30;;;28.70;99.90;;;;;;5037062;28;20758;-85
2022/07/03 09:47:19;;;;;;;0.30;0.30;;;28.90;99.90;;;;;;5039670;28;20220;-83
2022/07/03 09:50:17;;;;;;;0.57;0.57;;;28.80;99.90;;;;;;5035906;28;20331;-84
2022/07/03 09:52:44;;;;;;;0.40;0.40;;;28.80;99.90;;;;;;5046015;28;20598;-83
2022/07/03 09:55:10;;;;;;;0.40;0.40;;;28.80;99.90;;;;;;5038665;28;20190;-83
2022/07/03 09:57:50;;;;;;;0.40;0.40;;;28.80;99.90;;;;;;5039733;28;20178;-83
2022/07/03 10:00:24;;;;;;;0.40;0.40;;;28.90;99.90;;;;;;5047062;28;20206;-84
2022/07/03 10:03:03;;;;;;;0.55;0.55;;;29.00;99.90;;;;;;5040074;28;20189;-82
2022/07/03 10:05:32;;;;;;;0.55;0.55;;;29.30;99.90;;;;;;5047850;28;20700;-83
2022/07/03 10:08:00;;;;;;;0.25;0.25;;;29.40;99.90;;;;;;5039027;28;20300;-84
2022/07/03 10:10:31;;;;;;;0.50;0.50;;;29.40;99.90;;;;;;5045822;28;20558;-84
2022/07/03 10:12:58;;;;;;;0.50;0.40;;;29.40;99.90;;;;;;5040486;28;20675;-83
2022/07/03 10:15:25;;;;;;;0.50;0.50;;;29.50;99.90;;;;;;5038857;28;20235;-84
2022/07/03 10:17:53;;;;;;;1.60;1.05;;;29.70;99.90;;;;;;5041217;28;20182;-83
2022/07/03 10:20:30;;;;;;;0.75;0.28;;;29.80;99.90;;;;;;5040368;28;20198;-84
2022/07/03 10:22:56;;;;;;;0.38;0.38;;;29.60;99.90;;;;;;5061145;28;20644;-83
2022/07/03 10:25:23;;;;;;;0.25;0.25;;;29.70;99.90;;;;;;5039216;28;20240;-84
2022/07/03 10:27:49;;;;;;;0.28;0.28;;;29.70;99.90;;;;;;5061094;28;20675;-83
2022/07/03 10:30:17;;;;;;;0.30;0.30;;;29.80;99.90;;;;;;5038465;28;20236;-84
2022/07/03 10:32:49;;;;;;;0.75;0.40;;;29.90;99.90;;;;;;5037693;28;20757;-83
2022/07/03 10:35:31;;;;;;;0.30;0.30;;;29.90;99.90;;;;;;5034443;28;20178;-83
2022/07/03 10:38:03;;;;;;;0.40;0.40;;;29.80;99.90;;;;;;5036954;28;20182;-84
2022/07/03 10:46:26;;;;;;;0.20;0.20;;;30.00;99.90;;;;;;5033342;28;20212;-84
2022/07/03 10:49:12;;;;;;;0.45;0.45;;;30.00;99.90;;;;;;5042467;28;21252;-85
2022/07/03 10:51:44;;;;;;;0.40;0.40;;;29.80;99.90;;;;;;5038366;28;20666;-83
2022/07/03 10:54:28;;;;;;;0.50;0.50;;;29.80;99.90;;;;;;5039779;28;20206;-83
2022/07/03 10:56:57;;;;;;;0.50;0.50;;;29.90;99.90;;;;;;5039144;28;20208;-84
2022/07/03 10:59:46;;;;;;;0.50;0.40;;;29.90;99.90;;;;;;5043272;28;20686;-83
2022/07/03 11:02:21;;;;;;;0.28;0.28;;;30.00;99.90;;;;;;5040151;28;20236;-84
2022/07/03 11:04:59;;;;;;;0.40;0.40;;;30.20;99.90;;;;;;5036772;28;20189;-83
2022/07/03 11:07:32;;;;;;;0.47;0.47;;;30.10;99.90;;;;;;5038764;28;20334;-83
2022/07/03 11:10:10;;;;;;;0.25;0.25;;;30.30;99.90;;;;;;5037647;28;20568;-83
2022/07/03 11:13:03;;;;;;;0.70;0.47;;;30.30;99.90;;;;;;5041536;28;20182;-83
2022/07/03 11:15:48;;;;;;;0.35;0.30;;;30.30;99.90;;;;;;5033965;28;20175;-83
2022/07/03 11:18:28;;;;;;;0.98;0.68;;;30.50;99.90;;;;;;5035102;28;20261;-84
2022/07/03 11:20:53;;;;;;;3.03;0.30;;;30.70;99.90;;;;;;5036166;28;20702;-83
2022/07/03 11:23:25;;;;;;;0.40;0.40;;;30.80;99.90;;;;;;5036111;28;20191;-81
2022/07/03 11:25:52;;;;;;;0.30;0.30;;;30.80;99.90;;;;;;5058427;28;20178;-82
2022/07/03 11:28:32;;;;;;;0.30;0.30;;;30.70;99.90;;;;;;5036649;28;20705;-82
2022/07/03 11:31:11;;;;;;;0.45;0.45;;;30.70;99.90;;;;;;5035446;28;20302;-82
2022/07/03 11:33:43;;;;;;;3.40;0.40;;;30.70;99.90;;;;;;5037049;28;20286;-82
2022/07/03 11:36:30;;;;;;;0.20;0.20;;;30.70;99.90;;;;;;5037505;28;20204;-82
2022/07/03 11:38:57;;;;;;;0.20;0.20;;;30.80;99.90;;;;;;5035856;28;20193;-82
2022/07/03 11:41:24;;;;;;;0.35;0.32;;;30.80;99.90;;;;;;5036446;28;20220;-82
2022/07/03 11:43:51;;;;;;;0.30;0.30;;;30.60;99.90;;;;;;5035216;28;20198;-81
2022/07/03 11:46:19;;;;;;;0.32;0.32;;;31.00;99.90;;;;;;5034346;28;20197;-82
2022/07/03 11:48:44;;;;;;;0.30;0.30;;;30.90;99.90;;;;;;5035920;28;20182;-82
2022/07/03 11:51:10;;;;;;;0.20;0.20;;;30.80;99.90;;;;;;5034938;28;20890;-83
2022/07/03 11:53:38;;;;;;;0.20;0.20;;;31.00;99.90;;;;;;5034472;28;20249;-83
2022/07/03 11:56:09;;;;;;;0.45;0.30;;;31.10;99.90;;;;;;5036001;28;20243;-83
2022/07/03 11:58:42;;;;;;;1.27;0.60;;;31.30;99.90;;;;;;5039654;28;20182;-82
2022/07/03 12:01:27;;;;;;;0.43;0.40;;;31.10;99.90;;;;;;5035423;28;20292;-82
2022/07/03 12:04:02;;;;;;;0.30;0.25;;;31.10;99.90;;;;;;5032811;28;20182;-82
2022/07/03 12:06:34;;;;;;;0.40;0.40;;;31.20;99.90;;;;;;5034261;28;20182;-82
2022/07/03 12:09:00;;;;;;;0.30;0.30;;;31.30;99.90;;;;;;5035271;28;20197;-82
2022/07/03 12:11:25;;;;;;;0.30;0.30;;;31.30;99.90;;;;;;5035752;28;20238;-81
2022/07/03 12:13:52;;;;;;;0.35;0.35;;;31.30;99.90;;;;;;5034613;28;20249;-83
2022/07/03 12:16:18;;;;;;;0.30;0.30;;;31.30;99.90;;;;;;5034081;28;20770;-82
2022/07/03 12:18:52;;;;;;;0.30;0.30;;;31.30;99.90;;;;;;5033917;28;20237;-82
2022/07/03 12:21:19;;;;;;;0.35;0.35;;;31.30;99.90;;;;;;5033798;28;20178;-82
2022/07/03 12:23:46;;;;;;;0.30;0.30;;;31.40;99.90;;;;;;5034542;28;20272;-82
2022/07/03 12:26:12;;;;;;;0.47;0.43;;;31.40;99.90;;;;;;5033820;28;20261;-82
2022/07/03 12:28:39;;;;;;;0.20;0.20;;;31.30;99.90;;;;;;5034812;28;20194;-83
2022/07/03 12:31:05;;;;;;;0.30;0.30;;;31.50;99.90;;;;;;5034924;28;20271;-82
2022/07/03 12:33:35;;;;;;;0.30;0.30;;;31.60;99.90;;;;;;5033792;28;20208;-82
2022/07/03 12:36:09;;;;;;;0.25;0.25;;;31.70;99.90;;;;;;5033235;28;20174;-82
2022/07/03 12:38:39;;;;;;;0.20;0.20;;;31.90;99.90;;;;;;5035173;28;20559;-82
2022/07/03 12:41:10;;;;;;;0.35;0.35;;;32.20;99.90;;;;;;5033846;28;20727;-82
2022/07/03 12:43:40;;;;;;;0.20;0.20;;;32.40;99.90;;;;;;5038687;28;20213;-82
2022/07/03 12:46:32;;;;;;;0.25;0.25;;;32.30;99.90;;;;;;5039537;28;20284;-83
2022/07/03 12:49:00;;;;;;;0.50;0.50;;;32.40;99.90;;;;;;5033103;28;20182;-82
2022/07/03 12:51:57;;;;;;;0.52;0.52;;;32.50;99.90;;;;;;5035115;28;20191;-82
2022/07/03 12:54:33;;;;;;;0.25;0.25;;;32.30;99.90;;;;;;5034782;28;20212;-82
2022/07/03 13:00:16;;;;;;;0.20;0.20;;;32.00;99.90;;;;;;5039053;28;20274;-82
2022/07/03 13:02:47;;;;;;;0.40;0.40;;;31.90;99.90;;;;;;5038715;28;20183;-82
2022/07/03 13:05:19;;;;;;;0.20;0.20;;;31.90;99.90;;;;;;5038398;28;20269;-82
2022/07/03 13:07:55;;;;;;;0.28;0.28;;;32.10;99.90;;;;;;5043253;28;20275;-82
2022/07/03 13:10:22;;;;;;;0.20;0.20;;;31.90;99.90;;;;;;5039429;28;20704;-82
2022/07/03 13:12:56;;;;;;;0.30;0.30;;;32.20;99.90;;;;;;5037230;28;20217;-82
2022/07/03 13:15:26;;;;;;;0.90;0.30;;;32.40;99.90;;;;;;5059929;28;20186;-83
2022/07/03 13:17:54;;;;;;;0.35;0.35;;;32.20;99.90;;;;;;5036297;28;20182;-82
2022/07/03 13:20:31;;;;;;;0.20;0.20;;;32.00;99.90;;;;;;5037644;28;20202;-82